createdAt,value
2019-04-22T00:00:51.369Z,57.00
2019-04-22T00:03:22.031Z,57.00
2019-04-22T00:06:14.713Z,57.40
2019-04-22T00:08:44.549Z,58.10
2019-04-22T00:11:19.589Z,58.30
2019-04-22T00:13:47.279Z,58.20
2019-04-22T00:16:22.625Z,57.20
2019-04-22T00:19:06.182Z,56.40
2019-04-22T00:21:20.095Z,56.60
2019-04-22T00:23:45.198Z,56.10
2019-04-22T00:26:20.694Z,57.60
2019-04-22T00:28:52.303Z,58.90
2019-04-22T00:31:25.410Z,58.80
2019-04-22T00:33:53.179Z,58.70
2019-04-22T00:36:23.292Z,58.50
2019-04-22T00:38:59.148Z,58.50
2019-04-22T00:41:29.791Z,57.50
2019-04-22T00:43:59.998Z,58.10
2019-04-22T00:46:25.117Z,58.70
2019-04-22T00:49:28.780Z,59.10
2019-04-22T00:51:28.558Z,59.30
2019-04-22T00:53:54.614Z,60.00
2019-04-22T00:56:21.962Z,62.10
2019-04-22T00:58:50.575Z,63.90
2019-04-22T01:01:26.579Z,65.30
2019-04-22T01:06:27.079Z,64.80
2019-04-22T01:08:57.897Z,64.20
2019-04-22T01:11:29.546Z,63.60
2019-04-22T01:14:00.147Z,62.90
2019-04-22T01:18:55.906Z,64.60
2019-04-22T01:21:30.560Z,64.30
2019-04-22T01:23:53.347Z,63.30
2019-04-22T01:26:20.275Z,64.30
2019-04-22T01:28:50.040Z,65.30
2019-04-22T01:31:12.565Z,66.80
2019-04-22T01:33:43.894Z,65.70
2019-04-22T01:36:24.628Z,64.80
2019-04-22T01:38:58.442Z,64.60
2019-04-22T01:41:42.085Z,64.00
2019-04-22T01:44:19.426Z,63.20
2019-04-22T01:46:39.635Z,64.70
2019-04-22T01:48:59.549Z,65.50
2019-04-22T01:51:48.543Z,64.60
2019-04-22T01:54:05.657Z,64.10
2019-04-22T01:56:36.109Z,65.60
2019-04-22T01:58:54.702Z,66.30
2019-04-22T02:01:41.514Z,65.00
2019-04-22T02:04:00.896Z,64.70
2019-04-22T02:06:34.653Z,64.60
2019-04-22T02:09:13.785Z,63.20
2019-04-22T02:11:38.970Z,63.90
2019-04-22T02:14:04.033Z,65.00
2019-04-22T02:16:36.130Z,65.10
2019-04-22T02:19:12.647Z,65.00
2019-04-22T02:21:31.899Z,64.80
2019-04-22T02:24:02.667Z,66.40
2019-04-22T02:26:35.538Z,68.90
2019-04-22T02:29:01.130Z,69.70
2019-04-22T02:31:45.326Z,70.70
2019-04-22T02:34:31.106Z,69.20
2019-04-22T02:39:19.916Z,66.70
2019-04-22T02:41:30.894Z,67.40
2019-04-22T02:44:14.043Z,68.10
2019-04-22T02:47:08.432Z,69.20
2019-04-22T02:51:44.949Z,68.30
2019-04-22T02:59:12.429Z,69.30
2019-04-22T03:01:41.147Z,70.50
2019-04-22T03:09:12.673Z,69.30
2019-04-22T03:14:07.862Z,70.40
2019-04-22T03:16:40.753Z,69.50
2019-04-22T03:19:13.954Z,69.20
2019-04-22T03:21:36.674Z,68.90
2019-04-22T03:29:04.905Z,67.20
2019-04-22T03:35:15.823Z,68.70
2019-04-22T03:39:41.576Z,68.60
2019-04-22T03:42:07.111Z,68.80
2019-04-22T03:44:31.137Z,70.20
2019-04-22T03:47:09.469Z,72.90
2019-04-22T03:49:39.215Z,73.50
2019-04-22T03:57:26.522Z,72.30
2019-04-22T04:02:16.078Z,74.90
2019-04-22T04:04:31.749Z,75.90
2019-04-22T04:09:23.869Z,76.20
2019-04-22T04:11:59.608Z,74.90
2019-04-22T04:14:26.216Z,74.00
2019-04-22T04:19:48.197Z,72.70
2019-04-22T04:21:46.991Z,72.20
2019-04-22T04:32:09.758Z,71.70
2019-04-22T04:34:50.579Z,72.00
2019-04-22T04:39:26.400Z,70.90
2019-04-22T04:42:05.448Z,71.70
2019-04-22T04:44:34.760Z,71.60
2019-04-22T04:47:03.523Z,71.50
2019-04-22T04:49:34.928Z,70.90
2019-04-22T04:51:56.020Z,71.60
2019-04-22T04:54:30.232Z,71.70
2019-04-22T04:56:56.451Z,74.10
2019-04-22T04:59:42.066Z,75.00
2019-04-22T05:01:52.046Z,74.40
2019-04-22T05:04:25.463Z,72.50
2019-04-22T05:09:29.761Z,69.70
2019-04-22T05:12:07.767Z,69.80
2019-04-22T05:14:36.788Z,72.10
2019-04-22T05:16:59.745Z,74.80
2019-04-22T05:21:58.142Z,75.60
2019-04-22T05:24:23.865Z,73.80
2019-04-22T05:27:14.671Z,72.00
2019-04-22T05:31:52.238Z,68.10
2019-04-22T05:34:26.475Z,62.40
2019-04-22T05:39:17.251Z,53.50
2019-04-22T05:41:48.627Z,51.90
2019-04-22T05:44:36.129Z,52.80
2019-04-22T05:46:47.991Z,51.10
2019-04-22T05:49:18.244Z,51.50
2019-04-22T05:51:48.222Z,51.90
2019-04-22T05:54:20.922Z,51.00
2019-04-22T05:56:47.589Z,49.70
2019-04-22T05:59:20.778Z,49.30
2019-04-22T06:04:39.660Z,48.70
2019-04-22T06:06:46.865Z,50.00
2019-04-22T06:09:26.055Z,51.60
2019-04-22T06:11:46.176Z,53.20
2019-04-22T06:14:13.905Z,55.70
2019-04-22T06:16:50.414Z,54.60
2019-04-22T06:19:21.136Z,56.80
2019-04-22T06:21:49.095Z,54.70
2019-04-22T06:24:26.104Z,53.30
2019-04-22T06:29:19.610Z,52.50
2019-04-22T06:32:11.779Z,50.50
2019-04-22T06:34:26.545Z,50.50
2019-04-22T06:36:52.221Z,49.50
2019-04-22T06:41:59.106Z,44.70
2019-04-22T06:44:25.899Z,42.70
2019-04-22T06:46:52.559Z,42.60
2019-04-22T06:49:22.765Z,43.80
2019-04-22T06:51:55.791Z,44.20
2019-04-22T06:54:26.138Z,43.40
2019-04-22T06:56:49.189Z,42.90
2019-04-22T06:59:19.089Z,41.60
2019-04-22T07:01:52.523Z,42.50
2019-04-22T07:04:19.813Z,37.90
2019-04-22T07:06:56.817Z,39.60
2019-04-22T07:11:55.258Z,39.70
2019-04-22T07:14:18.644Z,40.00
2019-04-22T07:16:51.032Z,40.80
2019-04-22T07:19:26.580Z,39.10
2019-04-22T07:21:50.905Z,39.20
2019-04-22T07:24:37.469Z,37.90
2019-04-22T07:26:51.255Z,38.70
2019-04-22T07:29:27.868Z,38.30
2019-04-22T07:31:56.293Z,36.40
2019-04-22T07:34:28.377Z,37.20
2019-04-22T07:36:59.050Z,38.00
2019-04-22T07:39:26.833Z,36.30
2019-04-22T07:41:50.880Z,36.90
2019-04-22T07:44:25.837Z,37.00
2019-04-22T07:46:57.968Z,38.70
2019-04-22T07:49:26.672Z,36.60
2019-04-22T07:51:50.116Z,37.60
2019-04-22T07:54:24.340Z,37.30
2019-04-22T07:57:02.581Z,38.80
2019-04-22T07:59:22.250Z,36.40
2019-04-22T08:01:50.689Z,36.20
2019-04-22T08:04:44.224Z,35.60
2019-04-22T08:06:58.960Z,34.70
2019-04-22T08:09:29.527Z,33.70
2019-04-22T08:11:53.932Z,32.50
2019-04-22T08:14:30.115Z,33.00
2019-04-22T08:17:01.376Z,31.80
2019-04-22T08:21:57.054Z,32.50
2019-04-22T08:24:22.221Z,32.00
2019-04-22T08:26:56.084Z,31.10
2019-04-22T08:29:35.466Z,32.20
2019-04-22T08:31:55.017Z,32.70
2019-04-22T08:39:26.790Z,26.70
2019-04-22T08:41:48.598Z,26.80
2019-04-22T08:44:28.199Z,26.90
2019-04-22T08:46:56.131Z,27.50
2019-04-22T08:49:30.695Z,26.40
2019-04-22T08:51:58.867Z,27.70
2019-04-22T08:54:24.332Z,27.30
2019-04-22T08:56:55.540Z,27.10
2019-04-22T08:59:22.223Z,26.20
2019-04-22T09:01:49.223Z,25.80
2019-04-22T09:04:16.112Z,26.20
2019-04-22T09:07:10.492Z,26.30
2019-04-22T09:09:26.816Z,25.60
2019-04-22T09:11:54.360Z,25.70
2019-04-22T09:14:34.508Z,25.90
2019-04-22T09:17:00.028Z,25.90
2019-04-22T09:19:24.072Z,26.10
2019-04-22T09:24:23.647Z,25.80
2019-04-22T09:26:58.774Z,26.00
2019-04-22T09:29:32.629Z,26.60
2019-04-22T09:32:00.371Z,26.30
2019-04-22T09:34:28.206Z,24.70
2019-04-22T09:36:59.474Z,25.10
2019-04-22T09:39:30.160Z,25.30
2019-04-22T09:42:02.535Z,24.60
2019-04-22T09:44:21.802Z,25.40
2019-04-22T09:46:53.753Z,24.40
2019-04-22T09:49:26.754Z,24.30
2019-04-22T09:52:01.456Z,24.50
2019-04-22T09:54:30.392Z,25.90
2019-04-22T09:56:56.483Z,23.80
2019-04-22T09:59:32.961Z,24.60
2019-04-22T10:04:27.290Z,23.20
2019-04-22T10:06:53.954Z,23.80
2019-04-22T10:09:42.406Z,23.10
2019-04-22T10:11:55.091Z,23.20
2019-04-22T10:14:24.821Z,23.30
2019-04-22T10:16:53.968Z,24.10
2019-04-22T10:19:23.282Z,24.00
2019-04-22T10:22:17.149Z,23.20
2019-04-22T10:24:19.186Z,24.30
2019-04-22T10:26:56.400Z,23.80
2019-04-22T10:29:26.085Z,22.70
2019-04-22T10:31:54.383Z,23.50
2019-04-22T10:34:14.015Z,23.60
2019-04-22T10:36:31.186Z,23.40
2019-04-22T10:39:00.492Z,23.60
2019-04-22T10:41:30.492Z,24.50
2019-04-22T10:43:59.412Z,23.10
2019-04-22T10:46:28.343Z,23.40
2019-04-22T10:48:57.968Z,23.90
2019-04-22T10:51:26.595Z,23.60
2019-04-22T10:53:55.644Z,24.00
2019-04-22T10:56:25.166Z,23.70
2019-04-22T10:58:54.075Z,23.30
2019-04-22T11:01:23.269Z,23.90
2019-04-22T11:03:53.142Z,22.40
2019-04-22T11:06:23.767Z,21.60
2019-04-22T11:08:56.201Z,20.90
2019-04-22T11:11:34.672Z,20.70
2019-04-22T11:13:52.062Z,18.40
2019-04-22T11:16:21.503Z,18.30
2019-04-22T11:18:49.956Z,17.60
2019-04-22T11:21:19.806Z,18.00
2019-04-22T11:23:48.320Z,18.40
2019-04-22T11:26:17.742Z,16.80
2019-04-22T11:28:47.582Z,17.10
2019-04-22T11:31:16.585Z,18.70
2019-04-22T11:33:45.106Z,19.40
2019-04-22T11:36:13.663Z,19.20
2019-04-22T11:38:48.683Z,19.40
2019-04-22T11:41:12.644Z,20.90
2019-04-22T11:43:41.220Z,21.60
2019-04-22T11:46:09.564Z,20.00
2019-04-22T11:48:38.143Z,20.40
2019-04-22T11:51:06.631Z,21.20
2019-04-22T11:53:36.492Z,21.80
2019-04-22T11:56:05.131Z,22.80
2019-04-22T11:58:35.254Z,23.10
2019-04-22T12:01:03.816Z,22.80
2019-04-22T12:03:33.449Z,21.80
2019-04-22T12:06:02.211Z,22.20
2019-04-22T12:08:31.171Z,22.00
2019-04-22T12:11:02.670Z,21.40
2019-04-22T12:13:30.245Z,21.70
2019-04-22T12:15:58.956Z,22.10
2019-04-22T12:18:29.001Z,22.10
2019-04-22T12:20:59.096Z,21.20
2019-04-22T12:23:27.549Z,21.50
2019-04-22T12:26:03.305Z,21.90
2019-04-22T12:28:26.834Z,21.80
2019-04-22T12:30:55.417Z,22.70
2019-04-22T12:33:25.017Z,22.40
2019-04-22T12:35:54.770Z,22.80
2019-04-22T12:38:24.080Z,22.80
2019-04-22T12:40:58.499Z,22.90
2019-04-22T12:43:25.691Z,23.10
2019-04-22T12:45:54.139Z,22.20
2019-04-22T12:48:23.244Z,22.60
2019-04-22T12:50:54.221Z,22.60
2019-04-22T12:53:24.325Z,22.70
2019-04-22T12:55:55.119Z,22.00
2019-04-22T12:58:21.699Z,23.10
2019-04-22T13:00:51.381Z,22.00
2019-04-22T13:03:20.405Z,23.00
2019-04-22T13:05:49.495Z,22.20
2019-04-22T13:08:18.111Z,21.20
2019-04-22T13:10:55.507Z,21.70
2019-04-22T13:13:16.978Z,21.60
2019-04-22T13:15:46.811Z,23.10
2019-04-22T13:18:24.425Z,22.70
2019-04-22T13:20:46.344Z,22.50
2019-04-22T13:23:15.731Z,21.90
2019-04-22T13:25:44.884Z,22.00
2019-04-22T13:28:13.379Z,22.10
2019-04-22T13:30:41.758Z,21.50
2019-04-22T13:33:10.746Z,20.30
2019-04-22T13:35:39.489Z,21.00
2019-04-22T13:38:09.084Z,20.50
2019-04-22T13:40:38.834Z,21.40
2019-04-22T13:43:09.077Z,22.10
2019-04-22T13:45:38.559Z,21.80
2019-04-22T13:48:23.299Z,21.00
2019-04-22T13:51:05.871Z,21.50
2019-04-22T13:58:17.180Z,22.50
2019-04-22T14:00:38.447Z,22.50
2019-04-22T14:03:20.614Z,22.50
2019-04-22T14:05:50.928Z,22.40
2019-04-22T14:08:19.958Z,22.60
2019-04-22T14:10:48.519Z,22.60
2019-04-22T14:13:16.900Z,22.30
2019-04-22T14:15:46.587Z,22.90
2019-04-22T14:18:15.239Z,22.20
2019-04-22T14:20:44.971Z,22.20
2019-04-22T14:23:15.251Z,21.80
2019-04-22T14:25:43.605Z,22.00
2019-04-22T14:28:16.953Z,22.60
2019-04-22T14:30:42.515Z,22.30
2019-04-22T14:33:12.099Z,22.40
2019-04-22T14:35:41.558Z,22.20
2019-04-22T14:38:10.205Z,21.10
2019-04-22T14:40:40.891Z,21.30
2019-04-22T14:43:28.995Z,21.40
2019-04-22T14:46:12.311Z,21.50
2019-04-22T14:48:38.729Z,20.80
2019-04-22T14:50:56.062Z,20.90
2019-04-22T14:53:30.788Z,21.20
2019-04-22T14:55:40.366Z,21.20
2019-04-22T14:58:09.101Z,20.60
2019-04-22T15:00:38.183Z,20.90
2019-04-22T15:03:07.965Z,21.90
2019-04-22T15:05:37.172Z,20.90
2019-04-22T15:08:06.791Z,21.30
2019-04-22T15:10:36.088Z,21.30
2019-04-22T15:13:05.423Z,21.10
2019-04-22T15:15:42.071Z,21.60
2019-04-22T15:18:24.044Z,21.70
2019-04-22T15:21:11.137Z,21.40
2019-04-22T15:23:40.469Z,20.10
2019-04-22T15:26:08.864Z,20.50
2019-04-22T15:28:37.555Z,21.20
2019-04-22T15:31:06.104Z,21.40
2019-04-22T15:33:35.264Z,21.10
2019-04-22T15:36:03.709Z,21.60
2019-04-22T15:38:32.272Z,21.80
2019-04-22T15:41:00.980Z,21.80
2019-04-22T15:43:31.688Z,21.30
2019-04-22T15:46:02.315Z,21.20
2019-04-22T15:48:32.215Z,20.50
2019-04-22T15:51:00.513Z,21.50
2019-04-22T15:53:29.596Z,20.20
2019-04-22T15:55:58.827Z,20.00
2019-04-22T15:58:28.169Z,20.40
2019-04-22T16:01:08.766Z,21.00
2019-04-22T16:03:26.920Z,20.60
2019-04-22T16:05:55.320Z,20.70
2019-04-22T16:08:24.734Z,19.60
2019-04-22T16:10:53.707Z,20.00
2019-04-22T16:13:26.512Z,20.00
2019-04-22T16:15:52.422Z,20.30
2019-04-22T16:18:22.249Z,20.10
2019-04-22T16:20:52.278Z,20.10
2019-04-22T16:23:25.997Z,19.90
2019-04-22T16:26:11.742Z,20.10
2019-04-22T16:28:40.163Z,20.20
2019-04-22T16:31:09.257Z,19.70
2019-04-22T16:33:41.386Z,19.80
2019-04-22T16:36:09.026Z,20.10
2019-04-22T16:38:37.469Z,20.70
2019-04-22T16:41:06.600Z,20.40
2019-04-22T16:43:36.352Z,20.00
2019-04-22T16:46:05.643Z,20.00
2019-04-22T16:48:35.684Z,20.10
2019-04-22T16:51:04.438Z,20.30
2019-04-22T16:53:32.923Z,20.40
2019-04-22T16:56:02.667Z,20.30
2019-04-22T16:58:32.615Z,21.10
2019-04-22T17:01:02.781Z,21.10
2019-04-22T17:03:40.488Z,21.60
2019-04-22T17:06:11.778Z,21.40
2019-04-22T17:08:40.424Z,21.10
2019-04-22T17:11:09.690Z,19.90
2019-04-22T17:13:39.891Z,20.50
2019-04-22T17:16:09.914Z,21.30
2019-04-22T17:18:39.407Z,21.20
2019-04-22T17:21:09.199Z,21.00
2019-04-22T17:23:38.149Z,21.00
2019-04-22T17:26:06.619Z,21.30
2019-04-22T17:28:35.469Z,20.70
2019-04-22T17:31:04.670Z,21.30
2019-04-22T17:33:34.866Z,21.30
2019-04-22T17:36:03.548Z,21.60
2019-04-22T17:38:42.765Z,22.20
2019-04-22T17:41:20.260Z,23.10
2019-04-22T17:46:20.290Z,21.90
2019-04-22T17:48:59.426Z,22.10
2019-04-22T17:56:31.903Z,22.30
2019-04-22T17:58:58.787Z,22.70
2019-04-22T18:01:29.523Z,23.80
2019-04-22T18:03:45.678Z,23.80
2019-04-22T18:06:25.990Z,23.20
2019-04-22T18:08:57.509Z,23.40
2019-04-22T18:11:37.795Z,24.00
2019-04-22T18:14:11.687Z,24.10
2019-04-22T18:16:29.419Z,23.80
2019-04-22T18:19:00.809Z,24.10
2019-04-22T18:21:28.898Z,24.20
2019-04-22T18:23:49.378Z,25.00
2019-04-22T18:26:26.278Z,24.80
2019-04-22T18:29:02.468Z,24.80
2019-04-22T18:31:21.787Z,25.80
2019-04-22T18:33:54.610Z,25.50
2019-04-22T18:36:29.193Z,26.00
2019-04-22T18:39:06.284Z,25.70
2019-04-22T18:41:30.473Z,26.60
2019-04-22T18:44:04.287Z,26.60
2019-04-22T18:46:35.177Z,27.30
2019-04-22T18:49:03.330Z,27.50
2019-04-22T18:51:43.841Z,28.70
2019-04-22T18:54:19.741Z,29.60
2019-04-22T18:56:50.512Z,29.80
2019-04-22T18:59:14.599Z,30.20
2019-04-22T19:01:37.742Z,31.20
2019-04-22T19:04:15.190Z,31.00
2019-04-22T19:07:01.762Z,31.40
2019-04-22T19:09:38.296Z,32.00
2019-04-22T19:12:09.040Z,32.50
2019-04-22T19:14:33.397Z,32.00
2019-04-22T19:17:15.302Z,33.30
2019-04-22T19:19:38.379Z,33.40
2019-04-22T19:22:02.589Z,34.40
2019-04-22T19:24:24.217Z,34.50
2019-04-22T19:29:33.192Z,35.50
2019-04-22T19:32:01.810Z,35.50
2019-04-22T19:34:31.740Z,35.50
2019-04-22T19:37:02.139Z,35.80
2019-04-22T19:39:27.583Z,36.10
2019-04-22T19:42:00.890Z,37.60
2019-04-22T19:44:36.239Z,37.10
2019-04-22T19:47:18.161Z,37.60
2019-04-22T19:49:38.430Z,37.90
2019-04-22T19:52:05.999Z,38.00
2019-04-22T19:54:29.064Z,38.50
2019-04-22T19:56:53.135Z,39.40
2019-04-22T19:59:23.600Z,38.80
2019-04-22T20:02:04.346Z,37.50
2019-04-22T20:04:49.356Z,38.20
2019-04-22T20:07:11.224Z,38.00
2019-04-22T20:09:43.791Z,37.10
2019-04-22T20:12:13.863Z,37.00
2019-04-22T20:14:46.305Z,36.20
2019-04-22T20:17:09.692Z,36.50
2019-04-22T20:19:50.173Z,35.60
2019-04-22T20:22:30.251Z,35.40
2019-04-22T20:24:47.089Z,35.70
2019-04-22T20:27:31.773Z,35.70
2019-04-22T20:30:02.490Z,35.30
2019-04-22T20:32:41.297Z,35.30
2019-04-22T20:35:17.894Z,35.40
2019-04-22T20:37:47.227Z,35.80
2019-04-22T20:40:16.882Z,36.10
2019-04-22T20:42:48.600Z,35.50
2019-04-22T20:45:18.073Z,35.60
2019-04-22T20:47:39.561Z,35.40
2019-04-22T20:50:17.512Z,35.70
2019-04-22T20:55:07.998Z,35.70
2019-04-22T20:57:50.003Z,36.50
2019-04-22T21:00:08.923Z,36.20
2019-04-22T21:02:32.624Z,36.10
2019-04-22T21:05:13.460Z,35.80
2019-04-22T21:07:49.875Z,36.10
2019-04-22T21:10:14.542Z,36.30
2019-04-22T21:12:39.750Z,36.90
2019-04-22T21:15:25.237Z,36.50
2019-04-22T21:17:45.807Z,36.20
2019-04-22T21:20:26.217Z,36.90
2019-04-22T21:22:48.192Z,36.30
2019-04-22T21:25:15.314Z,36.30
2019-04-22T21:27:52.703Z,36.50
2019-04-22T21:30:19.981Z,36.80
2019-04-22T21:32:45.114Z,36.50
2019-04-22T21:35:32.124Z,36.40
2019-04-22T21:37:51.605Z,36.80
2019-04-22T21:42:58.331Z,36.70
2019-04-22T21:45:14.663Z,37.10
2019-04-22T21:47:57.743Z,37.00
2019-04-22T21:50:35.923Z,37.10
2019-04-22T21:52:56.903Z,37.10
2019-04-22T21:55:24.404Z,37.10
2019-04-22T21:57:57.277Z,37.00
2019-04-22T22:00:31.112Z,37.30
2019-04-22T22:02:52.857Z,37.30
2019-04-22T22:05:15.483Z,37.30
2019-04-22T22:07:33.303Z,37.40
2019-04-22T22:10:22.845Z,37.30
2019-04-22T22:12:54.853Z,37.40
2019-04-22T22:15:18.588Z,37.70
2019-04-22T22:17:51.509Z,37.50
2019-04-22T22:20:14.788Z,37.30
2019-04-22T22:23:16.926Z,37.30
2019-04-22T22:25:19.717Z,37.40
2019-04-22T22:27:47.539Z,37.60
2019-04-22T22:32:58.727Z,37.90
2019-04-22T22:35:20.741Z,37.70
2019-04-22T22:37:50.319Z,37.70
2019-04-22T22:40:09.303Z,37.70
2019-04-22T22:42:38.728Z,37.80
2019-04-22T22:45:16.865Z,38.30
2019-04-22T22:47:53.385Z,38.00
2019-04-22T22:50:20.057Z,39.00
2019-04-22T22:52:58.912Z,38.90
2019-04-22T22:55:21.988Z,38.00
2019-04-22T22:57:49.871Z,37.70
2019-04-22T23:00:19.404Z,38.90
2019-04-22T23:03:06.978Z,39.40
2019-04-22T23:05:26.049Z,38.70
2019-04-22T23:07:54.164Z,38.70
2019-04-22T23:10:26.733Z,38.70
2019-04-22T23:12:55.694Z,38.90
2019-04-22T23:15:20.384Z,38.70
2019-04-22T23:17:34.276Z,38.30
2019-04-22T23:20:04.969Z,38.50
2019-04-22T23:22:50.893Z,39.40
2019-04-22T23:25:27.117Z,38.30
2019-04-22T23:27:57.094Z,38.90
2019-04-22T23:30:25.427Z,38.40
2019-04-22T23:33:03.383Z,39.10
2019-04-22T23:35:43.077Z,39.00
2019-04-22T23:38:20.038Z,39.20
2019-04-22T23:40:47.779Z,38.80
2019-04-22T23:43:30.595Z,39.70
2019-04-22T23:45:50.380Z,40.00
2019-04-22T23:48:14.127Z,39.90
2019-04-22T23:50:51.083Z,39.80
2019-04-22T23:53:55.492Z,39.90
2019-04-22T23:56:03.199Z,39.70
2019-04-22T23:58:47.052Z,40.00
